sensor_id;sensor_type;location;lat;lon;timestamp;P1;durP1;ratioP1;P2;durP2;ratioP2
75616;SDS011;64200;55.426;37.758;2022-10-28T00:00:16;18.20;;;6.60;;
75616;SDS011;64200;55.426;37.758;2022-10-28T00:05:17;21.30;;;5.55;;
75616;SDS011;64200;55.426;37.758;2022-10-28T00:10:17;14.70;;;6.30;;
75616;SDS011;64200;55.426;37.758;2022-10-28T00:15:18;11.38;;;4.20;;
75616;SDS011;64200;55.426;37.758;2022-10-28T00:20:19;19.92;;;4.07;;
75616;SDS011;64200;55.426;37.758;2022-10-28T00:25:19;21.35;;;5.05;;
75616;SDS011;64200;55.426;37.758;2022-10-28T00:30:23;35.88;;;6.05;;
75616;SDS011;64200;55.426;37.758;2022-10-28T00:35:24;12.88;;;5.78;;
75616;SDS011;64200;55.426;37.758;2022-10-28T00:40:25;33.72;;;6.43;;
75616;SDS011;64200;55.426;37.758;2022-10-28T00:45:25;15.77;;;6.00;;
75616;SDS011;64200;55.426;37.758;2022-10-28T01:00:34;15.77;;;4.60;;
75616;SDS011;64200;55.426;37.758;2022-10-28T01:05:36;19.10;;;7.30;;
75616;SDS011;64200;55.426;37.758;2022-10-28T01:32:20;19.45;;;7.63;;
75616;SDS011;64200;55.426;37.758;2022-10-28T01:37:37;21.23;;;8.70;;
75616;SDS011;64200;55.426;37.758;2022-10-28T01:43:05;18.95;;;7.03;;
75616;SDS011;64200;55.426;37.758;2022-10-28T01:48:50;15.80;;;6.90;;
75616;SDS011;64200;55.426;37.758;2022-10-28T01:54:00;16.15;;;7.07;;
75616;SDS011;64200;55.426;37.758;2022-10-28T01:59:05;16.95;;;6.75;;
75616;SDS011;64200;55.426;37.758;2022-10-28T02:04:10;14.60;;;5.95;;
75616;SDS011;64200;55.426;37.758;2022-10-28T02:20:13;13.15;;;5.85;;
75616;SDS011;64200;55.426;37.758;2022-10-28T02:25:18;16.27;;;5.88;;
75616;SDS011;64200;55.426;37.758;2022-10-28T02:36:34;15.45;;;6.43;;
75616;SDS011;64200;55.426;37.758;2022-10-28T02:41:48;10.13;;;4.97;;
75616;SDS011;64200;55.426;37.758;2022-10-28T02:46:50;16.23;;;6.68;;
75616;SDS011;64200;55.426;37.758;2022-10-28T02:51:55;15.05;;;5.47;;
75616;SDS011;64200;55.426;37.758;2022-10-28T02:57:09;13.40;;;5.70;;
75616;SDS011;64200;55.426;37.758;2022-10-28T03:02:14;16.05;;;6.80;;
75616;SDS011;64200;55.426;37.758;2022-10-28T03:07:15;17.00;;;6.45;;
75616;SDS011;64200;55.426;37.758;2022-10-28T03:12:16;16.55;;;6.47;;
75616;SDS011;64200;55.426;37.758;2022-10-28T03:17:17;15.40;;;6.35;;
75616;SDS011;64200;55.426;37.758;2022-10-28T03:22:17;12.23;;;5.07;;
75616;SDS011;64200;55.426;37.758;2022-10-28T03:27:18;15.10;;;6.40;;
75616;SDS011;64200;55.426;37.758;2022-10-28T03:32:19;15.75;;;7.05;;
75616;SDS011;64200;55.426;37.758;2022-10-28T03:37:19;14.20;;;6.57;;
75616;SDS011;64200;55.426;37.758;2022-10-28T03:42:20;15.02;;;6.60;;
75616;SDS011;64200;55.426;37.758;2022-10-28T03:47:20;13.20;;;5.82;;
75616;SDS011;64200;55.426;37.758;2022-10-28T03:52:21;13.75;;;6.00;;
75616;SDS011;64200;55.426;37.758;2022-10-28T03:57:22;7.57;;;3.83;;
75616;SDS011;64200;55.426;37.758;2022-10-28T04:02:22;12.90;;;5.50;;
75616;SDS011;64200;55.426;37.758;2022-10-28T04:07:23;9.25;;;4.35;;
75616;SDS011;64200;55.426;37.758;2022-10-28T04:12:23;8.82;;;3.58;;
75616;SDS011;64200;55.426;37.758;2022-10-28T04:17:24;12.70;;;5.30;;
75616;SDS011;64200;55.426;37.758;2022-10-28T04:22:25;11.52;;;4.78;;
75616;SDS011;64200;55.426;37.758;2022-10-28T04:27:26;11.50;;;4.60;;
75616;SDS011;64200;55.426;37.758;2022-10-28T04:32:26;7.18;;;3.33;;
75616;SDS011;64200;55.426;37.758;2022-10-28T04:37:27;10.68;;;5.70;;
75616;SDS011;64200;55.426;37.758;2022-10-28T04:42:28;11.35;;;5.25;;
75616;SDS011;64200;55.426;37.758;2022-10-28T04:47:28;10.15;;;4.82;;
75616;SDS011;64200;55.426;37.758;2022-10-28T04:52:29;8.13;;;3.85;;
75616;SDS011;64200;55.426;37.758;2022-10-28T04:57:29;11.52;;;4.50;;
75616;SDS011;64200;55.426;37.758;2022-10-28T05:02:31;10.32;;;4.82;;
75616;SDS011;64200;55.426;37.758;2022-10-28T05:07:32;13.18;;;5.45;;
75616;SDS011;64200;55.426;37.758;2022-10-28T05:12:33;10.25;;;4.03;;
75616;SDS011;64200;55.426;37.758;2022-10-28T05:17:34;10.80;;;4.22;;
75616;SDS011;64200;55.426;37.758;2022-10-28T05:22:34;10.98;;;4.55;;
75616;SDS011;64200;55.426;37.758;2022-10-28T05:27:35;4.30;;;2.40;;
75616;SDS011;64200;55.426;37.758;2022-10-28T05:32:36;11.73;;;5.32;;
75616;SDS011;64200;55.426;37.758;2022-10-28T05:37:37;8.90;;;4.13;;
75616;SDS011;64200;55.426;37.758;2022-10-28T05:42:41;12.05;;;5.50;;
75616;SDS011;64200;55.426;37.758;2022-10-28T05:47:42;9.68;;;3.55;;
75616;SDS011;64200;55.426;37.758;2022-10-28T05:52:45;11.25;;;4.65;;
75616;SDS011;64200;55.426;37.758;2022-10-28T05:57:50;17.33;;;5.88;;
75616;SDS011;64200;55.426;37.758;2022-10-28T06:02:52;11.93;;;5.38;;
75616;SDS011;64200;55.426;37.758;2022-10-28T06:07:52;8.23;;;3.38;;
75616;SDS011;64200;55.426;37.758;2022-10-28T06:12:54;11.00;;;5.55;;
75616;SDS011;64200;55.426;37.758;2022-10-28T06:17:55;12.00;;;4.78;;
75616;SDS011;64200;55.426;37.758;2022-10-28T06:22:56;8.50;;;3.72;;
75616;SDS011;64200;55.426;37.758;2022-10-28T06:27:57;11.55;;;4.25;;
75616;SDS011;64200;55.426;37.758;2022-10-28T06:33:01;10.90;;;5.35;;
75616;SDS011;64200;55.426;37.758;2022-10-28T06:38:02;12.95;;;5.35;;
75616;SDS011;64200;55.426;37.758;2022-10-28T06:43:03;8.80;;;4.28;;
75616;SDS011;64200;55.426;37.758;2022-10-28T06:48:05;11.20;;;5.03;;
75616;SDS011;64200;55.426;37.758;2022-10-28T06:53:07;10.35;;;4.90;;
75616;SDS011;64200;55.426;37.758;2022-10-28T06:58:08;11.43;;;5.63;;
75616;SDS011;64200;55.426;37.758;2022-10-28T07:03:09;10.38;;;4.10;;
75616;SDS011;64200;55.426;37.758;2022-10-28T07:08:10;8.70;;;3.25;;
75616;SDS011;64200;55.426;37.758;2022-10-28T07:13:10;14.38;;;5.43;;
75616;SDS011;64200;55.426;37.758;2022-10-28T07:18:11;10.82;;;5.50;;
75616;SDS011;64200;55.426;37.758;2022-10-28T07:23:12;11.57;;;5.30;;
75616;SDS011;64200;55.426;37.758;2022-10-28T07:28:12;12.77;;;5.30;;
75616;SDS011;64200;55.426;37.758;2022-10-28T07:33:13;16.45;;;7.28;;
75616;SDS011;64200;55.426;37.758;2022-10-28T07:38:14;15.60;;;6.35;;
75616;SDS011;64200;55.426;37.758;2022-10-28T07:43:14;16.15;;;7.32;;
75616;SDS011;64200;55.426;37.758;2022-10-28T07:48:15;14.52;;;6.93;;
75616;SDS011;64200;55.426;37.758;2022-10-28T07:53:15;15.90;;;7.25;;
75616;SDS011;64200;55.426;37.758;2022-10-28T07:58:16;14.48;;;6.65;;
75616;SDS011;64200;55.426;37.758;2022-10-28T08:03:17;12.43;;;5.22;;
75616;SDS011;64200;55.426;37.758;2022-10-28T08:08:17;10.63;;;4.32;;
75616;SDS011;64200;55.426;37.758;2022-10-28T08:13:18;14.52;;;7.60;;
75616;SDS011;64200;55.426;37.758;2022-10-28T08:18:19;17.25;;;6.07;;
75616;SDS011;64200;55.426;37.758;2022-10-28T08:23:21;14.27;;;6.80;;
75616;SDS011;64200;55.426;37.758;2022-10-28T08:28:21;11.27;;;4.90;;
75616;SDS011;64200;55.426;37.758;2022-10-28T08:33:23;13.48;;;5.47;;
75616;SDS011;64200;55.426;37.758;2022-10-28T08:38:23;9.32;;;5.28;;
75616;SDS011;64200;55.426;37.758;2022-10-28T08:49:19;12.35;;;5.22;;
75616;SDS011;64200;55.426;37.758;2022-10-28T08:54:42;10.30;;;5.30;;
75616;SDS011;64200;55.426;37.758;2022-10-28T08:59:50;9.07;;;4.43;;
75616;SDS011;64200;55.426;37.758;2022-10-28T09:05:01;9.60;;;5.55;;
75616;SDS011;64200;55.426;37.758;2022-10-28T09:10:06;11.60;;;5.72;;
75616;SDS011;64200;55.426;37.758;2022-10-28T09:25:48;7.68;;;4.57;;
75616;SDS011;64200;55.426;37.758;2022-10-28T09:31:33;9.52;;;4.68;;
75616;SDS011;64200;55.426;37.758;2022-10-28T09:36:31;6.95;;;3.72;;
75616;SDS011;64200;55.426;37.758;2022-10-28T09:41:36;5.47;;;2.88;;
75616;SDS011;64200;55.426;37.758;2022-10-28T09:46:38;8.93;;;4.00;;
75616;SDS011;64200;55.426;37.758;2022-10-28T09:56:45;9.77;;;5.78;;
75616;SDS011;64200;55.426;37.758;2022-10-28T10:01:45;6.68;;;3.72;;
75616;SDS011;64200;55.426;37.758;2022-10-28T10:06:48;8.07;;;3.75;;
75616;SDS011;64200;55.426;37.758;2022-10-28T10:11:54;6.88;;;3.53;;
75616;SDS011;64200;55.426;37.758;2022-10-28T10:17:01;6.25;;;3.42;;
75616;SDS011;64200;55.426;37.758;2022-10-28T10:22:05;5.32;;;3.40;;
75616;SDS011;64200;55.426;37.758;2022-10-28T10:32:17;9.60;;;5.97;;
75616;SDS011;64200;55.426;37.758;2022-10-28T10:37:20;7.57;;;4.18;;
75616;SDS011;64200;55.426;37.758;2022-10-28T10:42:22;7.07;;;4.55;;
75616;SDS011;64200;55.426;37.758;2022-10-28T10:47:24;6.35;;;3.70;;
75616;SDS011;64200;55.426;37.758;2022-10-28T10:52:25;8.98;;;3.95;;
75616;SDS011;64200;55.426;37.758;2022-10-28T10:57:27;6.28;;;4.32;;
75616;SDS011;64200;55.426;37.758;2022-10-28T11:02:35;7.93;;;4.75;;
75616;SDS011;64200;55.426;37.758;2022-10-28T11:07:38;10.32;;;4.30;;
75616;SDS011;64200;55.426;37.758;2022-10-28T11:12:56;8.30;;;5.00;;
75616;SDS011;64200;55.426;37.758;2022-10-28T11:33:28;6.85;;;4.40;;
75616;SDS011;64200;55.426;37.758;2022-10-28T11:43:55;8.15;;;3.80;;
75616;SDS011;64200;55.426;37.758;2022-10-28T11:54:29;8.88;;;4.72;;
75616;SDS011;64200;55.426;37.758;2022-10-28T12:04:41;5.95;;;4.15;;
75616;SDS011;64200;55.426;37.758;2022-10-28T12:26:23;5.65;;;3.30;;
75616;SDS011;64200;55.426;37.758;2022-10-28T12:31:36;6.35;;;3.35;;
75616;SDS011;64200;55.426;37.758;2022-10-28T12:42:03;6.05;;;3.28;;
75616;SDS011;64200;55.426;37.758;2022-10-28T12:58:08;3.70;;;2.70;;
75616;SDS011;64200;55.426;37.758;2022-10-28T13:03:14;5.70;;;3.22;;
75616;SDS011;64200;55.426;37.758;2022-10-28T13:08:24;8.13;;;3.58;;
75616;SDS011;64200;55.426;37.758;2022-10-28T13:29:27;5.72;;;2.90;;
75616;SDS011;64200;55.426;37.758;2022-10-28T13:34:31;6.18;;;3.25;;
75616;SDS011;64200;55.426;37.758;2022-10-28T14:10:36;7.75;;;3.90;;
75616;SDS011;64200;55.426;37.758;2022-10-28T14:15:39;5.45;;;3.20;;
75616;SDS011;64200;55.426;37.758;2022-10-28T14:20:51;4.55;;;2.53;;
75616;SDS011;64200;55.426;37.758;2022-10-28T14:25:59;6.60;;;1.88;;
75616;SDS011;64200;55.426;37.758;2022-10-28T15:32:50;7.70;;;3.97;;
75616;SDS011;64200;55.426;37.758;2022-10-28T15:37:56;7.97;;;4.65;;
75616;SDS011;64200;55.426;37.758;2022-10-28T15:43:02;9.43;;;4.80;;
75616;SDS011;64200;55.426;37.758;2022-10-28T15:48:09;8.40;;;4.75;;
75616;SDS011;64200;55.426;37.758;2022-10-28T15:53:19;10.75;;;5.05;;
75616;SDS011;64200;55.426;37.758;2022-10-28T15:58:30;12.18;;;5.90;;
75616;SDS011;64200;55.426;37.758;2022-10-28T16:08:45;9.35;;;4.70;;
75616;SDS011;64200;55.426;37.758;2022-10-28T16:13:47;6.18;;;3.90;;
75616;SDS011;64200;55.426;37.758;2022-10-28T16:18:49;11.52;;;5.80;;
75616;SDS011;64200;55.426;37.758;2022-10-28T16:23:55;12.95;;;5.60;;
75616;SDS011;64200;55.426;37.758;2022-10-28T17:14:01;10.02;;;5.63;;
75616;SDS011;64200;55.426;37.758;2022-10-28T17:19:02;7.78;;;5.13;;
75616;SDS011;64200;55.426;37.758;2022-10-28T17:24:03;7.07;;;4.38;;
75616;SDS011;64200;55.426;37.758;2022-10-28T17:29:04;9.10;;;4.95;;
75616;SDS011;64200;55.426;37.758;2022-10-28T17:34:04;8.90;;;4.10;;
75616;SDS011;64200;55.426;37.758;2022-10-28T17:39:05;7.43;;;4.40;;
75616;SDS011;64200;55.426;37.758;2022-10-28T17:44:06;7.18;;;4.78;;
75616;SDS011;64200;55.426;37.758;2022-10-28T17:49:06;8.25;;;4.95;;
75616;SDS011;64200;55.426;37.758;2022-10-28T17:54:08;6.40;;;3.47;;
75616;SDS011;64200;55.426;37.758;2022-10-28T17:59:09;7.28;;;4.03;;
75616;SDS011;64200;55.426;37.758;2022-10-28T18:04:09;6.88;;;3.95;;
75616;SDS011;64200;55.426;37.758;2022-10-28T18:09:11;6.70;;;3.30;;
75616;SDS011;64200;55.426;37.758;2022-10-28T18:14:12;5.50;;;3.00;;
75616;SDS011;64200;55.426;37.758;2022-10-28T18:19:13;6.35;;;3.83;;
75616;SDS011;64200;55.426;37.758;2022-10-28T18:24:14;8.18;;;3.92;;
75616;SDS011;64200;55.426;37.758;2022-10-28T18:29:15;6.63;;;3.88;;
75616;SDS011;64200;55.426;37.758;2022-10-28T18:34:16;7.75;;;3.80;;
75616;SDS011;64200;55.426;37.758;2022-10-28T18:39:16;6.22;;;3.30;;
75616;SDS011;64200;55.426;37.758;2022-10-28T18:44:17;5.45;;;3.15;;
75616;SDS011;64200;55.426;37.758;2022-10-28T18:49:20;6.15;;;3.67;;
75616;SDS011;64200;55.426;37.758;2022-10-28T18:54:22;10.40;;;5.38;;
75616;SDS011;64200;55.426;37.758;2022-10-28T18:59:22;5.45;;;3.65;;
75616;SDS011;64200;55.426;37.758;2022-10-28T19:04:23;8.57;;;4.13;;
75616;SDS011;64200;55.426;37.758;2022-10-28T19:09:24;5.57;;;2.63;;
75616;SDS011;64200;55.426;37.758;2022-10-28T19:14:25;10.02;;;5.03;;
75616;SDS011;64200;55.426;37.758;2022-10-28T19:19:25;9.75;;;5.57;;
75616;SDS011;64200;55.426;37.758;2022-10-28T21:28:25;12.05;;;6.82;;
75616;SDS011;64200;55.426;37.758;2022-10-28T21:33:29;19.35;;;9.73;;
75616;SDS011;64200;55.426;37.758;2022-10-28T21:38:31;13.38;;;6.63;;
75616;SDS011;64200;55.426;37.758;2022-10-28T21:43:34;20.30;;;10.05;;
75616;SDS011;64200;55.426;37.758;2022-10-28T21:48:37;24.17;;;11.38;;
75616;SDS011;64200;55.426;37.758;2022-10-28T21:53:38;21.75;;;10.20;;
75616;SDS011;64200;55.426;37.758;2022-10-28T21:58:38;20.40;;;8.95;;
75616;SDS011;64200;55.426;37.758;2022-10-28T22:03:39;29.35;;;9.70;;
75616;SDS011;64200;55.426;37.758;2022-10-28T22:08:40;22.02;;;10.18;;
75616;SDS011;64200;55.426;37.758;2022-10-28T22:13:41;16.90;;;8.70;;
75616;SDS011;64200;55.426;37.758;2022-10-28T22:18:42;17.13;;;8.38;;
75616;SDS011;64200;55.426;37.758;2022-10-28T22:23:43;24.60;;;8.57;;
